Skip Navigation Links
NOAA logo - Click to go to the NOAA homepage
NOAA's National Weather Service
Alaska Aviation Weather Unit
  NWS logo - Click to go to the NWS homepage
Left Navbar Graphic     10 AKDT = 18 GMT

   
NOAA is celebrating 200 years of science, service, and stewardship. Visit the NOAA 200th celebration Web site to learn more.
USA.gov is the U.S. Government's official Web portal to all Federal, state and local government Web resources and services.
Facebook
NWS on Facebook

Important Change Regarding the AAWU Web Presence

 

Over the last several months, the AAWU has been working to navigate its webpages to a nationally supported server. Security, as well as other needs, have necessitated the change.  We have been given an extension for the site changeover while we diligently work at addressing feedback received. As of July 14, 2017, aawu.arh.noaa.gov will be discontinued. The new AAWU web address is weather.gov/aawu. It is now live and will run in-parallel with the old site until it is discontinued on July 14, 2017. Please continue to send any feedback or questions regarding the new webpages to nws.ar.aawu.webauthors@noaa.gov.  Thank you for your patience during this time of transition.
AAWU Home :: Display TAF Add Bookmark
TAF PAGY 261723Z 2618/2718  36004KT 6SM -RA OVC040
     FM262100 02005KT 6SM -RA BR BKN025 OVC040
     FM270200 03004KT 6SM -RA BR BKN015 OVC030
     FM271500 21007KT 5SM -RA BR BKN010 OVC025
      AMD LTD TO CLD VIS AND WIND=

2817
FTAK31 PAJN 261723
TAFAYA
TAF

METAR PAGY 261253Z AUTO 00000KT 10SM -RA OVC060 08/07 A2983 RMK RAB22 SLP101 P0000 T00780067 TSNO VIA AUTODIAL= METAR PAGY 261353Z AUTO 03004KT 9SM -RA OVC060 08/07 A2981 RMK SLP094 P0001 T00780067 TSNO VIA AUTODIAL= PAGY 261453Z AUTO 05004KT 8SM -RA OVC060 08/07 A2979 RMK SLP089 P0003 60004 T00780067 56024 TSNO VIA AUTODIAL= METAR PAGY 261553Z AUTO 05005KT 8SM -RA FEW046 OVC060 08/07 A2978 RMK SLP084 P0004 T00830072 TSNO VIA AUTODIAL= METAR PAGY 261653Z AUTO 34006KT 10SM -RA FEW043 BKN060 OVC075 09/07 A2976 RMK SLP079 P0003 T00940072 TSNO VIA AUTODIAL= PAGY 261753Z AUTO VRB04KT 7SM -RA FEW041 BKN060 OVC075 09/07 A2978 RMK SLP083 P0001 60012 T00940072 10094 20067 55006 TSNO VIA AUTODIAL=
 Alaska TAF Map

NOAA's National Weather Service
Alaska Aviation Weather Unit
6930 Sand Lake Road
Anchorage, AK 99502-1845
Disclaimer
Credits
Glossary
Privacy Policy
About Us
Career Opportunities
Contact AAWU Internet Services Site last modified: April, 17th 2012